Time;durP1;ratioP1;P1;durP2;ratioP2;P2;SDS_P1;SDS_P2;PMS_P1;PMS_P2;Temp;Humidity;BMP_temperature;BMP_pressure;BME280_temperature;BME280_humidity;BME280_pressure;Samples;Min_cycle;Max_cycle;Signal;HPM_P1;HPM_P2
2022/06/08 00:02:23;;;;;;;2.70;1.70;;;;;;;15.40;90.26;96061.63;5016264;28;20056;-80
2022/06/08 00:04:50;;;;;;;3.67;1.67;;;;;;;15.33;89.70;96069.66;5016209;28;20042;-80
2022/06/08 00:07:17;;;;;;;2.40;1.73;;;;;;;15.39;89.74;96073.72;4998062;28;20049;-81
2022/06/08 00:09:44;;;;;;;3.05;1.63;;;;;;;15.24;88.27;96063.56;5017995;28;20133;-79
2022/06/08 00:12:11;;;;;;;1.52;1.40;;;;;;;15.27;88.28;96068.34;5014800;28;20081;-80
2022/06/08 00:14:38;;;;;;;2.40;1.23;;;;;;;15.31;88.16;96062.97;5014345;28;20556;-80
2022/06/08 00:17:05;;;;;;;3.35;1.40;;;;;;;15.31;87.92;96062.97;5021789;28;20047;-81
2022/06/08 00:19:34;;;;;;;2.60;1.45;;;;;;;15.25;86.37;96064.38;5026591;28;20053;-81
2022/06/08 00:22:01;;;;;;;1.90;1.30;;;;;;;15.13;87.19;96062.50;5033658;28;20045;-81
2022/06/08 00:24:27;;;;;;;1.70;1.00;;;;;;;15.16;86.85;96061.03;5034193;28;20072;-80
2022/06/08 00:26:54;;;;;;;2.17;1.35;;;;;;;15.16;87.17;96056.31;5033708;28;20500;-81
2022/06/08 00:29:20;;;;;;;2.72;1.20;;;;;;;15.03;86.39;96060.28;5033664;28;20068;-81
2022/06/08 00:31:47;;;;;;;1.73;1.20;;;;;;;15.05;86.27;96052.53;5034096;28;20056;-80
2022/06/08 00:34:13;;;;;;;1.65;1.27;;;;;;;15.08;86.32;96055.34;5032719;28;20109;-81
2022/06/08 00:36:41;;;;;;;3.03;1.08;;;;;;;15.14;86.84;96058.63;5033772;28;20056;-79
2022/06/08 00:39:08;;;;;;;1.40;0.93;;;;;;;14.99;86.20;96056.69;5033246;28;20046;-79
2022/06/08 00:41:42;;;;;;;3.22;1.27;;;;;;;14.99;86.18;96056.69;5033252;28;20037;-80
2022/06/08 00:44:15;;;;;;;3.88;1.10;;;;;;;15.06;86.30;96056.84;5032469;28;20045;-81
2022/06/08 00:46:42;;;;;;;4.78;1.23;;;;;;;15.07;86.95;96052.97;5028036;28;20059;-80
2022/06/08 00:49:17;;;;;;;1.20;1.10;;;;;;;15.07;87.01;96052.97;5012253;28;20046;-79
2022/06/08 00:51:45;;;;;;;4.03;1.15;;;;;;;14.93;86.81;96050.69;5014998;28;20050;-79
2022/06/08 00:54:21;;;;;;;1.90;1.38;;;;;;;14.72;87.67;96048.19;5013170;28;20069;-81
2022/06/08 00:56:53;;;;;;;2.50;1.50;;;;;;;14.57;88.10;96047.00;5014506;28;20049;-81
2022/06/08 00:59:20;;;;;;;3.42;1.60;;;;;;;14.29;89.52;96051.66;5013620;28;20042;-80
2022/06/08 01:01:46;;;;;;;2.40;1.60;;;;;;;14.23;90.21;96047.59;4996269;28;20108;-80
2022/06/08 01:04:15;;;;;;;4.95;1.90;;;;;;;14.13;90.85;96048.88;5013303;28;20046;-79
2022/06/08 01:06:45;;;;;;;4.75;1.80;;;;;;;14.08;91.69;96041.69;5013526;28;20413;-79
2022/06/08 01:09:19;;;;;;;3.70;1.67;;;;;;;14.11;91.67;96045.69;5011830;28;20038;-79
2022/06/08 01:11:46;;;;;;;4.10;1.80;;;;;;;14.17;91.08;96049.78;5012539;28;20046;-80
2022/06/08 01:14:15;;;;;;;5.45;2.08;;;;;;;14.08;91.36;96047.19;5014422;28;20054;-80
2022/06/08 01:16:46;;;;;;;2.67;1.77;;;;;;;14.13;91.22;96045.34;5017783;28;20037;-80
2022/06/08 01:19:13;;;;;;;2.42;1.92;;;;;;;14.25;90.60;96046.09;5033323;28;20050;-80
2022/06/08 01:22:00;;;;;;;3.30;1.98;;;;;;;14.09;91.89;96042.50;5035043;28;20045;-80
2022/06/08 01:24:28;;;;;;;3.10;1.90;;;;;;;14.18;91.86;96043.16;5034439;28;20037;-82
2022/06/08 01:27:24;;;;;;;4.13;2.10;;;;;;;14.03;92.51;96035.69;5036339;28;20041;-81
2022/06/08 01:30:03;;;;;;;3.92;1.73;;;;;;;13.87;92.88;96043.03;5036446;28;20576;-82
2022/06/08 01:32:33;;;;;;;6.20;2.00;;;;;;;13.80;92.80;96030.75;5015603;28;20067;-82
2022/06/08 01:35:15;;;;;;;3.28;2.00;;;;;;;13.74;93.59;96032.13;5036995;28;20041;-83
2022/06/08 01:37:58;;;;;;;3.30;1.80;;;;;;;13.71;93.58;96027.34;5018982;28;20105;-82
2022/06/08 01:40:41;;;;;;;8.18;1.92;;;;;;;13.80;93.17;96027.22;5036712;28;20653;-80
2022/06/08 01:43:20;;;;;;;3.15;2.10;;;;;;;13.78;92.83;96027.56;5039055;28;20053;-82
2022/06/08 01:45:59;;;;;;;4.00;1.90;;;;;;;13.76;92.35;96021.63;5022665;28;20048;-82
2022/06/08 01:48:38;;;;;;;3.65;2.00;;;;;;;13.83;92.19;96010.91;5015880;28;20042;-81
2022/06/08 01:51:21;;;;;;;4.43;1.73;;;;;;;13.89;91.91;96010.66;5014073;28;20073;-81
2022/06/08 01:53:55;;;;;;;2.80;1.70;;;;;;;13.79;92.31;96006.47;5015688;28;20049;-83
2022/06/08 01:56:30;;;;;;;3.47;1.77;;;;;;;13.84;91.72;96019.91;5015467;28;20112;-81
2022/06/08 01:59:10;;;;;;;3.67;1.77;;;;;;;13.92;91.50;96001.72;5015290;28;20041;-81
2022/06/08 02:01:46;;;;;;;3.15;1.90;;;;;;;13.94;91.42;96008.47;5014774;28;20042;-79
2022/06/08 02:04:23;;;;;;;2.60;1.50;;;;;;;14.09;90.81;96001.44;5012384;28;20045;-80
2022/06/08 02:06:58;;;;;;;2.63;1.63;;;;;;;14.23;90.52;95999.09;5012125;28;20046;-79
2022/06/08 02:09:33;;;;;;;3.13;1.52;;;;;;;14.29;90.53;95994.94;5022700;28;20044;-79
2022/06/08 02:12:04;;;;;;;2.97;1.42;;;;;;;14.39;90.73;95990.09;5032056;28;20045;-82
2022/06/08 02:14:36;;;;;;;3.47;1.40;;;;;;;14.42;90.17;95987.47;5031290;28;20056;-82
2022/06/08 02:17:07;;;;;;;2.08;1.30;;;;;;;14.52;90.26;95977.97;5031519;28;20467;-81
2022/06/08 02:19:39;;;;;;;1.65;1.20;;;;;;;14.59;90.31;95980.88;5035363;28;20053;-81
2022/06/08 02:22:10;;;;;;;1.80;1.50;;;;;;;14.56;89.61;95985.13;5034789;28;20056;-82
2022/06/08 02:24:42;;;;;;;2.20;1.30;;;;;;;14.64;89.39;95974.34;5035993;28;20050;-82
2022/06/08 02:27:15;;;;;;;2.53;1.33;;;;;;;14.62;88.98;95977.44;5034032;28;20049;-81
2022/06/08 02:29:44;;;;;;;;;;;;;;;14.67;88.75;95982.66;5035359;28;20073;-81
2022/06/08 02:35:10;;;;;;;3.22;1.40;;;;;;;14.69;88.53;95974.09;5035591;28;20048;-81
2022/06/08 02:37:39;;;;;;;3.33;1.40;;;;;;;14.66;88.99;95978.31;5035525;28;20125;-82
2022/06/08 02:40:12;;;;;;;2.28;1.35;;;;;;;14.62;88.76;95971.97;4979061;28;20057;-81
2022/06/08 02:42:42;;;;;;;2.50;1.33;;;;;;;14.55;88.44;95974.50;4997175;28;20085;-81
2022/06/08 02:45:14;;;;;;;2.88;1.40;;;;;;;14.54;88.14;95981.16;4995389;28;20059;-81
2022/06/08 02:47:44;;;;;;;1.43;1.20;;;;;;;14.60;88.18;95979.72;4985356;28;20047;-81
2022/06/08 02:50:15;;;;;;;3.35;1.80;;;;;;;14.53;88.52;95976.81;4982554;28;20049;-80
2022/06/08 02:52:44;;;;;;;2.67;1.77;;;;;;;14.53;88.28;95974.88;4995789;28;20041;-81
2022/06/08 02:55:19;;;;;;;2.30;1.70;;;;;;;14.64;88.79;95975.16;4994028;28;20051;-79
2022/06/08 02:57:50;;;;;;;1.85;1.60;;;;;;;14.60;89.12;95974.25;4995166;28;20077;-81
2022/06/08 03:00:25;;;;;;;2.83;1.90;;;;;;;14.62;88.84;95971.97;4992594;28;20050;-82
2022/06/08 03:02:55;;;;;;;2.28;1.60;;;;;;;14.68;88.83;95978.78;4994855;28;20046;-81
2022/06/08 03:05:28;;;;;;;6.03;1.50;;;;;;;14.75;89.21;95976.19;4994572;28;20057;-81
2022/06/08 03:08:02;;;;;;;2.47;1.70;;;;;;;14.74;88.84;95980.09;5003728;28;20038;-81
2022/06/08 03:10:34;;;;;;;4.00;1.92;;;;;;;14.47;88.74;95983.69;5007116;28;20053;-81
2022/06/08 03:13:05;;;;;;;3.25;1.75;;;;;;;14.50;88.72;95986.53;5034250;28;20041;-80
2022/06/08 03:15:33;;;;;;;2.53;1.75;;;;;;;14.48;89.18;95982.56;5034108;28;20042;-82
2022/06/08 03:18:00;;;;;;;5.88;1.67;;;;;;;14.52;89.06;95978.78;5034198;28;20052;-80
2022/06/08 03:20:28;;;;;;;5.55;2.00;;;;;;;14.47;89.74;95975.47;5023541;28;20048;-81
2022/06/08 03:22:55;;;;;;;2.50;1.85;;;;;;;14.46;90.15;95979.31;5034225;28;20041;-83
2022/06/08 03:25:23;;;;;;;3.45;1.98;;;;;;;14.42;90.20;95970.25;5016019;28;20141;-81
2022/06/08 03:27:51;;;;;;;3.55;2.08;;;;;;;14.33;90.36;95971.19;5033679;28;20045;-81
2022/06/08 03:30:18;;;;;;;2.80;1.85;;;;;;;14.47;89.87;95981.75;5032567;28;20049;-78
2022/06/08 03:32:46;;;;;;;2.75;1.95;;;;;;;14.48;90.29;95977.88;5032973;28;20042;-81
2022/06/08 03:35:12;;;;;;;3.83;2.25;;;;;;;14.51;90.58;95981.84;5033835;28;20041;-81
2022/06/08 03:37:39;;;;;;;3.33;1.88;;;;;;;14.47;90.24;95975.47;5031719;28;20046;-81
2022/06/08 03:40:07;;;;;;;2.70;1.77;;;;;;;14.39;90.23;95979.16;5032813;28;20492;-81
2022/06/08 03:42:34;;;;;;;2.78;1.80;;;;;;;14.49;89.97;95979.47;5034966;28;20042;-82
2022/06/08 03:45:02;;;;;;;8.05;2.17;;;;;;;14.54;89.86;95987.41;5032694;28;20409;-81
2022/06/08 03:47:33;;;;;;;8.10;2.03;;;;;;;14.39;89.92;95987.38;5033577;28;20072;-82
2022/06/08 03:50:03;;;;;;;2.17;1.70;;;;;;;14.54;89.61;95989.38;5033050;28;20053;-81
2022/06/08 03:52:35;;;;;;;2.28;1.70;;;;;;;14.64;89.75;95991.59;5032159;28;20156;-81
2022/06/08 03:55:05;;;;;;;3.67;2.20;;;;;;;14.66;89.87;95983.78;5033620;28;20042;-80
2022/06/08 03:57:32;;;;;;;7.07;2.28;;;;;;;14.63;89.77;95990.00;5034106;28;20042;-81
2022/06/08 04:00:00;;;;;;;3.92;1.75;;;;;;;14.62;89.61;95991.16;5033597;28;20041;-82
2022/06/08 04:02:29;;;;;;;3.90;2.00;;;;;;;14.56;89.67;95995.28;5032739;28;20045;-81
2022/06/08 04:04:56;;;;;;;2.53;1.73;;;;;;;14.65;89.67;95987.69;5032862;28;20067;-82
2022/06/08 04:07:23;;;;;;;2.22;1.77;;;;;;;14.64;89.72;95991.59;5031355;28;20428;-79
2022/06/08 04:09:49;;;;;;;3.13;2.00;;;;;;;14.70;89.76;95990.16;5030334;28;20125;-81
2022/06/08 04:12:22;;;;;;;3.58;1.88;;;;;;;14.75;89.66;95992.66;5032958;28;20045;-81
2022/06/08 04:14:49;;;;;;;6.88;2.00;;;;;;;14.58;89.55;95993.00;5033672;28;20441;-82
2022/06/08 04:17:16;;;;;;;3.25;2.17;;;;;;;14.68;89.21;95987.00;5020812;28;20054;-81
2022/06/08 04:19:44;;;;;;;3.90;2.10;;;;;;;14.73;89.25;95989.47;5032550;28;20042;-79
2022/06/08 04:22:11;;;;;;;7.47;2.22;;;;;;;14.74;89.54;95984.78;5032072;28;20049;-79
2022/06/08 04:24:37;;;;;;;4.88;2.22;;;;;;;14.74;89.11;95993.00;5033226;28;20057;-79
2022/06/08 04:27:04;;;;;;;4.15;1.92;;;;;;;14.82;89.12;95984.59;5032123;28;20067;-80
2022/06/08 04:29:31;;;;;;;4.47;2.38;;;;;;;14.64;88.95;95991.59;5034292;28;20053;-79
2022/06/08 04:31:57;;;;;;;4.43;2.58;;;;;;;14.54;89.16;95992.09;5033993;28;20045;-80
2022/06/08 04:34:24;;;;;;;3.00;2.50;;;;;;;14.35;90.00;95988.09;5034478;28;20439;-80
2022/06/08 04:36:52;;;;;;;3.35;2.20;;;;;;;14.35;90.38;95985.34;5033787;28;20065;-80
2022/06/08 04:39:19;;;;;;;5.18;2.42;;;;;;;14.39;90.22;95988.16;5017876;28;20053;-81
2022/06/08 04:41:46;;;;;;;3.95;2.58;;;;;;;14.32;90.50;95990.72;5032792;28;20041;-80
2022/06/08 04:44:13;;;;;;;4.32;2.40;;;;;;;14.38;89.98;95983.84;5032158;28;20045;-80
2022/06/08 04:46:40;;;;;;;4.28;2.10;;;;;;;14.34;90.62;95971.97;5033813;28;20048;-81
2022/06/08 04:49:08;;;;;;;3.80;2.25;;;;;;;14.30;90.93;95977.38;5034098;28;20542;-80
2022/06/08 04:51:35;;;;;;;3.55;2.20;;;;;;;14.21;91.19;95976.75;5024026;28;20059;-81
2022/06/08 04:54:03;;;;;;;3.92;2.33;;;;;;;14.22;90.95;95975.59;5034004;28;20041;-79
2022/06/08 04:56:30;;;;;;;2.63;2.20;;;;;;;14.29;90.64;95977.72;5033531;28;20053;-81
2022/06/08 04:58:56;;;;;;;4.20;2.17;;;;;;;14.38;90.11;95972.09;5025192;28;20065;-84
2022/06/08 05:01:23;;;;;;;4.88;2.10;;;;;;;14.23;90.96;95966.22;5035637;28;20591;-81
2022/06/08 05:03:50;;;;;;;6.55;2.30;;;;;;;14.11;91.74;95974.50;5038319;28;20037;-81
2022/06/08 05:06:17;;;;;;;2.22;1.85;;;;;;;14.13;92.03;95972.22;5030778;28;20045;-81
2022/06/08 05:08:44;;;;;;;2.33;1.98;;;;;;;14.28;91.57;95956.97;5001941;28;20052;-79
2022/06/08 05:11:11;;;;;;;2.40;2.00;;;;;;;14.49;90.90;95954.00;5008706;28;20050;-81
2022/06/08 05:13:38;;;;;;;4.45;2.22;;;;;;;14.43;89.21;95963.63;5011759;28;20054;-81
2022/06/08 05:16:06;;;;;;;3.53;2.05;;;;;;;14.50;88.88;95952.84;5011403;28;20046;-80
2022/06/08 05:18:32;;;;;;;5.97;2.13;;;;;;;14.57;88.29;95958.53;5009876;28;20046;-80
2022/06/08 05:20:59;;;;;;;2.90;2.00;;;;;;;14.68;88.10;95951.38;5012644;28;20057;-80
2022/06/08 05:23:28;;;;;;;3.15;1.98;;;;;;;14.69;87.03;95949.41;5013089;28;20056;-84
2022/06/08 05:25:55;;;;;;;2.25;1.80;;;;;;;14.73;86.65;95944.81;5014289;28;20034;-81
2022/06/08 05:28:23;;;;;;;4.03;2.00;;;;;;;14.75;86.81;95951.53;5015476;28;20054;-81
2022/06/08 05:30:50;;;;;;;2.20;1.70;;;;;;;14.84;86.90;95957.63;5013004;28;20054;-79
2022/06/08 05:33:18;;;;;;;7.00;2.20;;;;;;;14.85;86.77;95948.25;5006398;28;20046;-81
2022/06/08 05:35:45;;;;;;;2.85;1.98;;;;;;;14.96;86.26;95943.03;5017436;28;20518;-80
2022/06/08 05:38:12;;;;;;;4.05;1.80;;;;;;;15.13;85.63;95952.81;4991083;28;20057;-80
2022/06/08 05:40:38;;;;;;;3.10;1.75;;;;;;;15.14;84.78;95948.94;4990360;28;20078;-79
2022/06/08 05:43:06;;;;;;;2.25;1.60;;;;;;;15.14;84.14;95948.94;4990369;28;20050;-79
2022/06/08 05:45:35;;;;;;;3.67;1.80;;;;;;;15.17;83.67;95948.22;4990735;28;20050;-79
2022/06/08 05:48:04;;;;;;;6.35;1.65;;;;;;;15.23;83.58;95949.50;4990282;28;20515;-78
2022/06/08 05:50:32;;;;;;;4.43;1.58;;;;;;;15.19;83.13;95945.91;4990776;28;20057;-79
2022/06/08 05:52:58;;;;;;;2.45;1.55;;;;;;;15.27;82.28;95953.13;4992839;28;20045;-79
2022/06/08 05:55:26;;;;;;;4.47;1.55;;;;;;;15.37;81.56;95952.59;4994249;28;20043;-79
2022/06/08 05:57:52;;;;;;;3.65;1.52;;;;;;;15.29;81.19;95950.81;4994833;28;20516;-79
2022/06/08 06:00:22;;;;;;;6.00;1.85;;;;;;;15.43;82.20;95955.03;4994350;28;20047;-80
2022/06/08 06:02:50;;;;;;;4.72;1.52;;;;;;;15.57;80.69;95950.66;4994778;28;20382;-79
2022/06/08 06:05:19;;;;;;;5.80;1.80;;;;;;;15.58;80.40;95951.47;4994316;28;20050;-80
2022/06/08 06:07:46;;;;;;;3.95;1.58;;;;;;;15.57;79.65;95955.38;4993998;28;20135;-80
2022/06/08 06:10:14;;;;;;;2.55;1.58;;;;;;;15.68;79.15;95966.59;4996139;28;20042;-79
2022/06/08 06:12:41;;;;;;;4.38;1.80;;;;;;;15.43;80.74;95971.50;5014263;28;20050;-79
2022/06/08 06:15:10;;;;;;;3.67;1.73;;;;;;;15.49;81.33;95954.41;5003784;28;20074;-79
2022/06/08 06:17:37;;;;;;;3.85;1.88;;;;;;;15.46;82.75;95954.34;5012940;28;20056;-79
2022/06/08 06:20:06;;;;;;;4.50;1.90;;;;;;;15.40;83.27;95959.31;5013744;28;20046;-79
2022/06/08 06:22:35;;;;;;;3.35;1.70;;;;;;;15.46;83.45;95965.31;5014373;28;20413;-78
2022/06/08 06:25:01;;;;;;;3.17;1.70;;;;;;;15.52;82.80;95961.94;5013759;28;20046;-78
2022/06/08 06:27:28;;;;;;;3.75;1.80;;;;;;;15.60;82.69;95952.66;5014096;28;20046;-78
2022/06/08 06:29:55;;;;;;;4.75;1.98;;;;;;;15.64;82.09;95945.34;5013724;28;20420;-79
2022/06/08 06:32:25;;;;;;;2.67;1.80;;;;;;;15.59;80.49;95942.84;5013180;28;20524;-79
2022/06/08 06:34:52;;;;;;;6.60;2.20;;;;;;;15.61;82.43;95950.75;5014029;28;20073;-79
2022/06/08 06:37:20;;;;;;;5.05;1.90;;;;;;;15.64;81.10;95941.81;5011973;28;20099;-78
2022/06/08 06:39:46;;;;;;;3.92;1.80;;;;;;;15.59;81.80;95936.56;5011109;28;20049;-78
2022/06/08 06:42:15;;;;;;;4.00;2.40;;;;;;;15.79;82.50;95935.47;5013007;28;20062;-78
2022/06/08 06:44:42;;;;;;;3.08;1.70;;;;;;;15.93;82.68;95939.66;5013321;28;20069;-81
2022/06/08 06:47:09;;;;;;;4.93;1.92;;;;;;;16.01;82.75;95931.16;5012596;28;20053;-79
2022/06/08 06:49:35;;;;;;;7.45;2.72;;;;;;;16.03;80.90;95941.81;5013222;28;20052;-79
2022/06/08 06:52:02;;;;;;;3.92;2.67;;;;;;;16.06;80.88;95938.31;5013176;28;20042;-78
2022/06/08 06:54:31;;;;;;;2.90;1.80;;;;;;;16.30;80.71;95938.00;5014063;28;20046;-79
2022/06/08 06:56:57;;;;;;;2.35;1.40;;;;;;;16.41;78.97;95929.94;5013924;28;20046;-79
2022/06/08 06:59:24;;;;;;;3.53;1.77;;;;;;;16.44;78.24;95931.94;5013439;28;20064;-79
2022/06/08 07:01:50;;;;;;;2.85;1.70;;;;;;;16.43;77.90;95931.16;5013871;28;20421;-79
2022/06/08 07:04:18;;;;;;;5.20;2.08;;;;;;;16.52;78.26;95922.69;5011005;28;20564;-79
2022/06/08 07:06:45;;;;;;;3.72;2.00;;;;;;;16.56;76.34;95925.50;5013949;28;20065;-79
2022/06/08 07:09:12;;;;;;;6.38;1.98;;;;;;;16.68;78.10;95930.81;5025348;28;20409;-80
2022/06/08 07:11:41;;;;;;;3.08;1.63;;;;;;;16.73;76.18;95930.53;5033403;28;20501;-78
2022/06/08 07:14:13;;;;;;;5.60;2.10;;;;;;;16.79;77.60;95926.28;5016204;28;20042;-80
2022/06/08 07:16:39;;;;;;;2.47;1.73;;;;;;;16.56;75.17;95925.50;5008298;28;20046;-79
2022/06/08 07:19:08;;;;;;;6.78;1.63;;;;;;;16.80;76.05;95922.38;5005769;28;20053;-80
2022/06/08 07:21:35;;;;;;;5.00;1.90;;;;;;;16.93;74.84;95925.75;4994705;28;20125;-78
2022/06/08 07:24:02;;;;;;;8.00;2.05;;;;;;;16.86;74.90;95917.34;4993747;28;20057;-78
2022/06/08 07:26:28;;;;;;;3.65;1.65;;;;;;;16.94;73.24;95916.31;4993611;28;20054;-80
2022/06/08 07:28:57;;;;;;;2.63;1.58;;;;;;;16.90;74.03;95916.25;4993589;28;20038;-79
2022/06/08 07:31:25;;;;;;;3.00;1.50;;;;;;;17.08;70.30;95910.25;4992743;28;20586;-79
2022/06/08 07:33:52;;;;;;;2.95;1.63;;;;;;;17.26;71.17;95908.53;4993053;28;20069;-79
2022/06/08 07:36:19;;;;;;;2.33;1.48;;;;;;;17.30;70.22;95906.63;4992872;28;20043;-78
2022/06/08 07:38:45;;;;;;;3.13;1.63;;;;;;;17.13;69.12;95901.69;5005506;28;20049;-80
2022/06/08 07:41:12;;;;;;;2.40;1.42;;;;;;;17.19;70.77;95898.22;5011892;28;20046;-80
2022/06/08 07:43:39;;;;;;;2.30;1.48;;;;;;;17.29;71.17;95905.03;5012495;28;20497;-80
2022/06/08 07:46:06;;;;;;;3.40;1.60;;;;;;;17.41;71.37;95902.06;5002622;28;20072;-79
2022/06/08 07:51:18;;;;;;;3.05;1.10;;;;;;;17.58;74.29;95881.44;5011463;28;20061;-79
2022/06/08 07:53:45;;;;;;;3.80;2.00;;;;;;;17.48;74.68;95887.59;5012027;28;20378;-79
2022/06/08 07:56:12;;;;;;;5.03;1.73;;;;;;;17.65;74.86;95894.50;5011773;28;20058;-78
2022/06/08 07:58:38;;;;;;;3.60;1.67;;;;;;;17.76;72.03;95889.94;5012584;28;20046;-80
2022/06/08 08:01:06;;;;;;;3.78;1.35;;;;;;;17.64;71.63;95876.38;5011614;28;20062;-79
2022/06/08 08:03:33;;;;;;;3.08;1.80;;;;;;;17.60;71.08;95881.06;5012663;28;20126;-78
2022/06/08 08:06:00;;;;;;;2.40;1.25;;;;;;;17.70;72.05;95870.19;5012822;28;20046;-79
2022/06/08 08:08:27;;;;;;;3.35;1.67;;;;;;;17.75;72.41;95877.34;5009026;28;20505;-80
2022/06/08 08:10:53;;;;;;;1.95;1.20;;;;;;;17.70;71.46;95878.44;5011775;28;20666;-78
2022/06/08 08:13:20;;;;;;;2.40;1.77;;;;;;;17.69;70.58;95879.59;5011840;28;20049;-78
2022/06/08 08:15:46;;;;;;;2.83;1.77;;;;;;;18.59;74.43;95878.59;5022922;28;20408;-79
2022/06/08 08:18:16;;;;;;;6.53;1.60;;;;;;;19.61;68.50;95878.88;5011580;28;20046;-79
2022/06/08 08:20:43;;;;;;;5.38;1.48;;;;;;;20.50;67.03;95868.84;4992375;28;20069;-80
2022/06/08 08:23:10;;;;;;;3.55;1.20;;;;;;;20.58;57.00;95870.47;4991614;28;20046;-78
2022/06/08 08:25:36;;;;;;;1.65;1.08;;;;;;;21.03;57.02;95868.03;4993016;28;20501;-81
2022/06/08 08:28:04;;;;;;;3.20;1.08;;;;;;;20.88;56.27;95866.50;4993761;28;20038;-80
2022/06/08 08:30:31;;;;;;;2.25;1.05;;;;;;;20.73;57.24;95862.16;4993433;28;20502;-79
2022/06/08 08:32:58;;;;;;;2.17;1.10;;;;;;;21.11;58.64;95858.56;4992522;28;20437;-79
2022/06/08 08:35:25;;;;;;;13.13;2.22;;;;;;;21.57;63.02;95857.69;4992551;28;20057;-78
2022/06/08 08:37:53;;;;;;;4.13;1.35;;;;;;;21.53;57.98;95856.09;5000227;28;20048;-80
2022/06/08 08:40:38;;;;;;;2.83;1.05;;;;;;;21.14;56.17;95856.16;5004663;28;20409;-79
2022/06/08 08:43:07;;;;;;;1.73;0.90;;;;;;;20.67;57.17;95844.34;4992350;28;20046;-81
2022/06/08 08:45:41;;;;;;;2.35;1.30;;;;;;;20.45;58.10;95847.09;5004796;28;20136;-79
2022/06/08 08:48:14;;;;;;;2.85;1.20;;;;;;;20.71;64.93;95840.41;5011477;28;20034;-80
2022/06/08 08:50:45;;;;;;;5.03;1.35;;;;;;;20.98;64.11;95843.53;5012211;28;20469;-79
2022/06/08 08:53:22;;;;;;;2.75;1.27;;;;;;;21.03;55.80;95845.13;5011696;28;20433;-79
2022/06/08 08:55:51;;;;;;;4.60;1.23;;;;;;;20.67;55.17;95847.13;5012109;28;20042;-79
2022/06/08 08:58:23;;;;;;;4.72;1.45;;;;;;;20.53;58.32;95843.19;4992324;28;20054;-79
2022/06/08 09:00:51;;;;;;;1.27;0.90;;;;;;;20.24;57.60;95836.03;5003607;28;20052;-80
2022/06/08 09:03:26;;;;;;;4.28;1.20;;;;;;;19.82;56.71;95829.22;5010665;28;20042;-80
2022/06/08 09:05:58;;;;;;;1.85;1.00;;;;;;;19.74;59.99;95827.63;5012287;28;20054;-79
2022/06/08 09:08:27;;;;;;;2.42;1.25;;;;;;;19.79;61.79;95817.00;5008769;28;20049;-80
2022/06/08 09:10:57;;;;;;;2.45;1.10;;;;;;;19.53;56.42;95829.13;5011905;28;20038;-78
2022/06/08 09:13:29;;;;;;;2.42;1.10;;;;;;;19.53;59.31;95823.59;5009287;28;20100;-79
2022/06/08 09:15:59;;;;;;;4.33;1.20;;;;;;;19.15;57.27;95829.72;5003691;28;20042;-80
2022/06/08 09:18:35;;;;;;;3.38;1.20;;;;;;;19.08;59.24;95826.91;5011731;28;20452;-79
2022/06/08 09:21:26;;;;;;;6.47;1.30;;;;;;;18.88;60.45;95820.88;5012906;28;20060;-79
2022/06/08 09:23:56;;;;;;;4.35;1.20;;;;;;;19.13;61.71;95821.03;5012523;28;20399;-78
2022/06/08 09:26:33;;;;;;;3.05;1.23;;;;;;;19.16;63.28;95814.72;5000494;28;20049;-79
2022/06/08 09:29:07;;;;;;;2.60;1.33;;;;;;;19.17;60.35;95803.31;5012418;28;20050;-79
2022/06/08 09:31:35;;;;;;;2.55;1.10;;;;;;;19.38;58.04;95804.59;5011254;28;20041;-78
2022/06/08 09:34:08;;;;;;;3.58;1.40;;;;;;;19.47;60.46;95803.06;5014053;28;20048;-78
2022/06/08 09:36:34;;;;;;;4.00;1.20;;;;;;;19.54;62.01;95792.03;5031855;28;20128;-79
2022/06/08 09:39:03;;;;;;;2.67;1.10;;;;;;;19.42;60.15;95781.34;5026151;28;20288;-79
2022/06/08 09:41:34;;;;;;;1.75;1.17;;;;;;;19.47;60.23;95778.22;5005913;28;20034;-79
2022/06/08 09:44:16;;;;;;;2.80;1.30;;;;;;;19.34;61.23;95771.44;4999893;28;20038;-78
2022/06/08 09:52:41;;;;;;;2.35;1.00;;;;;;;19.48;58.46;95759.66;5011425;28;20080;-78
2022/06/08 09:55:24;;;;;;;4.55;1.50;;;;;;;19.36;54.60;95765.53;5010298;28;20065;-81
2022/06/08 09:57:59;;;;;;;1.90;1.10;;;;;;;19.65;62.77;95758.16;5011333;28;20061;-79
2022/06/08 10:00:33;;;;;;;2.55;1.10;;;;;;;19.84;60.56;95755.06;5011225;28;20045;-79
2022/06/08 10:03:30;;;;;;;4.68;1.20;;;;;;;19.91;61.09;95755.03;5011465;28;20049;-79
2022/06/08 10:06:06;;;;;;;2.88;1.00;;;;;;;20.16;60.56;95752.31;5004145;28;20042;-80
2022/06/08 10:08:50;;;;;;;2.05;1.02;;;;;;;20.40;52.76;95753.47;5010444;28;20084;-78
2022/06/08 10:11:38;;;;;;;2.83;1.27;;;;;;;20.72;55.93;95753.44;5010051;28;20058;-80
2022/06/08 10:14:13;;;;;;;4.35;1.25;;;;;;;20.97;52.02;95753.41;5010404;28;20046;-80
2022/06/08 10:16:46;;;;;;;4.30;1.45;;;;;;;21.27;56.71;95743.81;5010891;28;20050;-79
2022/06/08 10:19:21;;;;;;;3.95;1.20;;;;;;;21.30;47.39;95740.28;5013529;28;20046;-79
2022/06/08 10:21:50;;;;;;;2.55;1.10;;;;;;;21.33;51.19;95736.69;5010825;28;20050;-79
2022/06/08 10:24:22;;;;;;;2.50;1.33;;;;;;;21.30;51.98;95737.50;4991080;28;20057;-78
2022/06/08 10:26:56;;;;;;;2.17;0.90;;;;;;;21.50;48.92;95738.56;4991684;28;20105;-80
2022/06/08 10:29:33;;;;;;;3.60;1.00;;;;;;;21.79;54.20;95727.34;4991798;28;20282;-79
2022/06/08 10:32:05;;;;;;;3.67;1.00;;;;;;;21.97;51.48;95719.66;4992605;28;20042;-79
2022/06/08 10:34:33;;;;;;;2.93;1.30;;;;;;;22.12;52.96;95718.38;4991898;28;20049;-81
2022/06/08 10:37:04;;;;;;;2.40;0.88;;;;;;;22.25;51.53;95720.69;4993757;28;20042;-81
2022/06/08 10:39:33;;;;;;;1.73;1.00;;;;;;;22.19;49.72;95714.00;5013064;28;20038;-81
2022/06/08 10:42:40;;;;;;;2.35;0.98;;;;;;;21.92;46.95;95720.09;5017094;28;20556;-82
2022/06/08 10:45:38;;;;;;;3.95;1.20;;;;;;;22.12;50.72;95709.28;5015547;28;20034;-81
2022/06/08 10:48:28;;;;;;;3.53;1.00;;;;;;;22.21;48.02;95714.38;5014815;28;20445;-81
2022/06/08 10:51:32;;;;;;;3.85;1.17;;;;;;;22.25;43.20;95706.81;5016778;28;20054;-82
2022/06/08 10:56:50;;;;;;;2.90;1.10;;;;;;;22.01;45.93;95703.78;5015700;28;20057;-78
2022/06/08 10:59:21;;;;;;;5.32;1.20;;;;;;;22.16;50.34;95698.19;5014213;28;20068;-81
2022/06/08 11:02:11;;;;;;;1.45;0.90;;;;;;;22.17;46.19;95686.66;5014813;28;20091;-78
2022/06/08 11:04:56;;;;;;;5.35;0.93;;;;;;;22.22;49.13;95691.78;5015217;28;20042;-79
2022/06/08 11:07:24;;;;;;;6.65;1.52;;;;;;;22.16;44.46;95681.53;5015272;28;20060;-80
2022/06/08 11:10:03;;;;;;;3.67;1.00;;;;;;;22.29;46.18;95677.84;5031577;28;20045;-81
2022/06/08 11:12:58;;;;;;;1.73;0.98;;;;;;;22.34;49.70;95671.06;5014642;28;20482;-81
2022/06/08 11:15:40;;;;;;;1.95;0.95;;;;;;;22.33;45.67;95666.72;5015099;28;20050;-81
2022/06/08 11:18:17;;;;;;;3.37;1.10;;;;;;;21.70;44.90;95671.56;5014822;28;20124;-80
2022/06/08 11:20:48;;;;;;;3.25;0.80;;;;;;;21.83;47.46;95656.03;5016413;28;20501;-80
2022/06/08 11:23:19;;;;;;;2.90;0.80;;;;;;;21.86;51.22;95661.53;5015031;28;20042;-81
2022/06/08 11:25:49;;;;;;;5.78;1.75;;;;;;;22.25;48.88;95654.13;5037117;28;20022;-78
2022/06/08 11:28:39;;;;;;;3.08;1.10;;;;;;;22.05;50.19;95656.66;5029291;28;20050;-78
2022/06/08 11:31:12;;;;;;;4.90;1.00;;;;;;;22.02;46.76;95666.56;5012239;28;20054;-80
2022/06/08 11:34:03;;;;;;;;;;;;;;;22.24;47.96;95663.63;5014774;28;20042;-80
2022/06/08 11:36:50;;;;;;;1.85;0.98;;;;;;;22.17;47.79;95656.16;4912935;28;19962;-81
2022/06/08 11:39:23;;;;;;;1.83;0.95;;;;;;;22.14;50.11;95657.78;5004048;28;20520;-78
2022/06/08 11:42:00;;;;;;;2.10;0.90;;;;;;;22.09;46.60;95654.63;4988168;28;20057;-80
2022/06/08 11:44:32;;;;;;;4.80;0.93;;;;;;;22.07;46.29;95645.91;4977289;28;20046;-80
2022/06/08 11:47:13;;;;;;;4.22;0.82;;;;;;;21.95;44.28;95633.38;4975088;28;20074;-80
2022/06/08 11:49:43;;;;;;;1.45;1.08;;;;;;;21.75;47.26;95629.56;4973631;28;20046;-79
2022/06/08 11:52:32;;;;;;;3.22;0.90;;;;;;;21.68;49.32;95635.19;4981992;28;20486;-81
2022/06/08 11:55:00;;;;;;;2.28;0.80;;;;;;;21.65;49.17;95622.91;4989385;28;20050;-83
2022/06/08 11:57:27;;;;;;;1.48;1.08;;;;;;;21.76;50.60;95620.06;4990312;28;20047;-84
2022/06/08 11:59:58;;;;;;;3.17;1.10;;;;;;;21.81;48.84;95616.84;4983556;28;20042;-82
2022/06/08 12:02:35;;;;;;;2.63;0.90;;;;;;;22.06;47.25;95622.19;4994902;28;20414;-81
2022/06/08 12:05:02;;;;;;;2.80;1.23;;;;;;;22.18;50.65;95612.59;4977046;28;20446;-79
2022/06/08 12:07:47;;;;;;;2.92;0.80;;;;;;;22.31;49.40;95600.56;4970396;28;20077;-84